KCNU/CNU METAR and TAF weather

Enter ICAO airport designator
Station Type Date Time Source
KCNU METAR 2020/12/06 01:52 UTC NOAA

KCNU 060152Z AUTO 33006KT 10SM CLR 06/M01 A3014 RMK AO2 SLP212 T00561011


Station Type Date Time Source
KCNU Decoded METAR 2020/12/06 01:52 UTC NOAA

CHANUTE JOHNSON AIRPORT, KS, United States (KCNU) 37-40N 95-29W 297M
Dec 05, 2020 - 08:52 PM EST / 2020.12.06 0152 UTC
Wind: from the NNW (330 degrees) at 7 MPH (6 KT):0
Visibility: 10 mile(s):0
Sky conditions: clear
Temperature: 42.1 F (5.6 C)
Dew Point: 30.0 F (-1.1 C)
Relative Humidity: 61%
Pressure (altimeter): 30.14 in. Hg (1020 hPa)
ob: KCNU 060152Z AUTO 33006KT 10SM CLR 06/M01 A3014 RMK AO2 SLP212 T00561011
cycle: 2

Station Type Date Time Source
KCNU TAF 2020/12/05 18:22 UTC NOAA

TAF KCNU 051720Z 0518/0618 33009KT P6SM SKC
FM060200 VRB03KT P6SM SKC

Example: see airport list